Time,TemperatureF,DewpointF,PressureIn,WindDirection,WindDirectionDegrees,WindSpeedMPH,WindSpeedGustMPH,Humidity,HourlyPrecipIn,Conditions,Clouds,dailyrainin,SoftwareType,DateUTC
2013-12-06 00:09:00,49.9,49.0,29.83,SE,140,0.0,3.0,97,0.00,,,0.09,weatherlink.com 1.10,2013-12-06 05:09:00,
2013-12-06 00:24:00,49.8,49.0,29.84,SE,140,0.0,4.0,98,0.00,,,0.09,weatherlink.com 1.10,2013-12-06 05:24:00,
2013-12-06 00:39:00,49.9,49.0,29.83,SSE,149,0.0,4.0,98,0.00,,,0.09,weatherlink.com 1.10,2013-12-06 05:39:00,
2013-12-06 00:54:00,51.4,51.0,29.82,ENE,59,2.0,8.0,98,0.00,,,0.09,weatherlink.com 1.10,2013-12-06 05:54:00,
2013-12-06 01:09:00,53.6,51.0,29.82,NE,38,6.0,10.0,91,0.00,,,0.09,weatherlink.com 1.10,2013-12-06 06:09:00,
2013-12-06 01:24:00,53.2,51.0,29.82,NE,40,3.0,6.0,91,0.00,,,0.09,weatherlink.com 1.10,2013-12-06 06:24:00,
2013-12-06 01:39:00,52.1,50.0,29.80,NE,40,0.0,1.0,92,0.00,,,0.09,weatherlink.com 1.10,2013-12-06 06:39:00,
2013-12-06 01:54:00,51.0,49.0,29.79,NE,40,1.0,2.0,94,0.00,,,0.09,weatherlink.com 1.10,2013-12-06 06:54:00,
2013-12-06 02:09:00,50.6,49.0,29.80,NE,40,0.0,1.0,95,0.00,,,0.09,weatherlink.com 1.10,2013-12-06 07:09:00,
2013-12-06 02:24:00,50.4,49.0,29.81,NE,40,1.0,2.0,95,0.00,,,0.09,weatherlink.com 1.10,2013-12-06 07:24:00,
2013-12-06 02:40:00,-999.0,-99.9,29.81,North,-999,-999.0,-999.0,-999,0.00,,,0.09,weatherlink.com 1.10,2013-12-06 07:40:00,
2013-12-06 02:55:00,-999.0,-99.9,29.83,North,-999,-999.0,-999.0,-999,0.00,,,0.09,weatherlink.com 1.10,2013-12-06 07:55:00,
2013-12-06 03:10:00,-999.0,-99.9,29.83,North,-999,-999.0,-999.0,-999,0.00,,,0.09,weatherlink.com 1.10,2013-12-06 08:10:00,
2013-12-06 03:25:00,-999.0,-99.9,29.82,North,-999,-999.0,-999.0,-999,0.00,,,0.09,weatherlink.com 1.10,2013-12-06 08:25:00,
2013-12-06 03:40:00,-999.0,-99.9,29.82,North,-999,-999.0,-999.0,-999,0.00,,,0.09,weatherlink.com 1.10,2013-12-06 08:40:00,
2013-12-06 03:55:00,-999.0,-99.9,29.84,North,-999,-999.0,-999.0,-999,0.00,,,0.09,weatherlink.com 1.10,2013-12-06 08:55:00,
2013-12-06 04:10:00,-999.0,-99.9,29.86,North,-999,-999.0,-999.0,-999,0.00,,,0.09,weatherlink.com 1.10,2013-12-06 09:10:00,
2013-12-06 04:25:00,-999.0,-99.9,29.85,North,-999,-999.0,-999.0,-999,0.00,,,0.09,weatherlink.com 1.10,2013-12-06 09:25:00,
2013-12-06 04:40:00,-999.0,-99.9,29.86,North,-999,-999.0,-999.0,-999,0.00,,,0.09,weatherlink.com 1.10,2013-12-06 09:40:00,
2013-12-06 04:55:00,-999.0,-99.9,29.84,North,-999,-999.0,-999.0,-999,0.00,,,0.09,weatherlink.com 1.10,2013-12-06 09:55:00,
2013-12-06 05:10:00,-999.0,-99.9,29.85,North,-999,-999.0,-999.0,-999,0.00,,,0.09,weatherlink.com 1.10,2013-12-06 10:10:00,
2013-12-06 05:25:00,-999.0,-99.9,29.85,North,-999,-999.0,-999.0,-999,0.00,,,0.09,weatherlink.com 1.10,2013-12-06 10:25:00,
2013-12-06 05:40:00,-999.0,-99.9,29.86,North,-999,-999.0,-999.0,-999,0.00,,,0.09,weatherlink.com 1.10,2013-12-06 10:40:00,
2013-12-06 05:55:00,-999.0,-99.9,29.85,North,-999,-999.0,-999.0,-999,0.00,,,0.09,weatherlink.com 1.10,2013-12-06 10:55:00,
2013-12-06 06:11:00,-999.0,-99.9,29.85,North,-999,-999.0,-999.0,-999,0.00,,,0.09,weatherlink.com 1.10,2013-12-06 11:11:00,
2013-12-06 06:26:00,-999.0,-99.9,29.85,North,-999,-999.0,-999.0,-999,0.00,,,0.09,weatherlink.com 1.10,2013-12-06 11:26:00,
2013-12-06 06:41:00,-999.0,-99.9,29.87,North,-999,-999.0,-999.0,-999,0.00,,,0.09,weatherlink.com 1.10,2013-12-06 11:41:00,
2013-12-06 06:56:00,-999.0,-99.9,29.88,North,-999,-999.0,-999.0,-999,0.00,,,0.09,weatherlink.com 1.10,2013-12-06 11:56:00,
2013-12-06 07:11:00,-999.0,-99.9,29.87,North,-999,-999.0,-999.0,-999,0.00,,,0.09,weatherlink.com 1.10,2013-12-06 12:11:00,
2013-12-06 07:26:00,-999.0,-99.9,29.88,North,-999,-999.0,-999.0,-999,0.00,,,0.09,weatherlink.com 1.10,2013-12-06 12:26:00,
2013-12-06 07:41:00,-999.0,-99.9,29.90,North,-999,-999.0,-999.0,-999,0.00,,,0.09,weatherlink.com 1.10,2013-12-06 12:41:00,
2013-12-06 07:56:00,-999.0,-99.9,29.90,North,-999,-999.0,-999.0,-999,0.00,,,0.09,weatherlink.com 1.10,2013-12-06 12:56:00,
2013-12-06 08:11:00,-999.0,-99.9,29.91,North,-999,-999.0,-999.0,-999,0.00,,,0.09,weatherlink.com 1.10,2013-12-06 13:11:00,
2013-12-06 08:26:00,-999.0,-99.9,29.91,North,-999,-999.0,-999.0,-999,0.00,,,0.09,weatherlink.com 1.10,2013-12-06 13:26:00,
2013-12-06 08:41:00,-999.0,-99.9,29.91,North,-999,-999.0,-999.0,-999,0.00,,,0.09,weatherlink.com 1.10,2013-12-06 13:41:00,
2013-12-06 08:56:00,32.4,32.0,29.90,NNE,21,7.0,14.0,98,0.00,,,0.09,weatherlink.com 1.10,2013-12-06 13:56:00,
2013-12-06 09:11:00,32.6,32.0,29.91,NE,45,10.0,10.0,98,0.00,,,0.09,weatherlink.com 1.10,2013-12-06 14:11:00,
2013-12-06 09:26:00,32.4,32.0,29.92,NE,40,16.0,17.0,98,0.00,,,0.09,weatherlink.com 1.10,2013-12-06 14:26:00,
2013-12-06 09:41:00,32.2,32.0,29.92,East,93,9.0,17.0,97,0.00,,,0.09,weatherlink.com 1.10,2013-12-06 14:41:00,
2013-12-06 09:56:00,32.0,31.0,29.92,NE,36,3.0,15.0,97,0.00,,,0.09,weatherlink.com 1.10,2013-12-06 14:56:00,
2013-12-06 10:11:00,31.9,31.0,29.91,ENE,64,9.0,14.0,97,0.00,,,0.09,weatherlink.com 1.10,2013-12-06 15:11:00,
2013-12-06 10:26:00,32.0,31.0,29.92,ESE,116,4.0,12.0,96,0.00,,,0.09,weatherlink.com 1.10,2013-12-06 15:26:00,
2013-12-06 10:42:00,32.0,31.0,29.95,NE,39,13.0,13.0,95,0.00,,,0.09,weatherlink.com 1.10,2013-12-06 15:42:00,
2013-12-06 10:57:00,31.9,31.0,29.93,NE,49,4.0,16.0,95,0.00,,,0.09,weatherlink.com 1.10,2013-12-06 15:57:00,
2013-12-06 11:12:00,31.8,31.0,29.94,NE,47,7.0,15.0,96,0.00,,,0.09,weatherlink.com 1.10,2013-12-06 16:12:00,
2013-12-06 11:27:00,31.6,31.0,29.93,ESE,109,3.0,15.0,96,0.00,,,0.09,weatherlink.com 1.10,2013-12-06 16:27:00,
2013-12-06 11:42:00,31.6,31.0,29.94,NE,38,7.0,15.0,96,0.00,,,0.09,weatherlink.com 1.10,2013-12-06 16:42:00,
2013-12-06 11:57:00,31.7,31.0,29.93,ENE,74,5.0,14.0,96,0.00,,,0.09,weatherlink.com 1.10,2013-12-06 16:57:00,
2013-12-06 12:12:00,32.0,31.0,29.94,ENE,77,7.0,15.0,95,0.00,,,0.09,weatherlink.com 1.10,2013-12-06 17:12:00,
2013-12-06 12:27:00,32.2,31.0,29.93,NE,55,5.0,11.0,94,0.01,,,0.10,weatherlink.com 1.10,2013-12-06 17:27:00,
2013-12-06 12:42:00,32.2,30.0,29.93,ESE,103,4.0,12.0,93,0.01,,,0.10,weatherlink.com 1.10,2013-12-06 17:42:00,
2013-12-06 12:57:00,32.8,31.0,29.93,NE,38,7.0,9.0,91,0.01,,,0.10,weatherlink.com 1.10,2013-12-06 17:57:00,
2013-12-06 13:12:00,32.8,31.0,29.93,ESE,110,3.0,9.0,91,0.01,,,0.10,weatherlink.com 1.10,2013-12-06 18:12:00,
2013-12-06 13:27:00,33.4,30.0,29.95,South,173,3.0,7.0,88,0.00,,,0.10,weatherlink.com 1.10,2013-12-06 18:27:00,
2013-12-06 13:42:00,33.1,30.0,29.93,ENE,57,5.0,10.0,89,0.00,,,0.10,weatherlink.com 1.10,2013-12-06 18:42:00,
2013-12-06 13:57:00,32.7,29.0,29.93,ENE,76,2.0,9.0,87,0.00,,,0.10,weatherlink.com 1.10,2013-12-06 18:57:00,
2013-12-06 14:27:00,32.4,29.0,29.94,NNE,32,3.0,6.0,86,0.00,,,0.10,weatherlink.com 1.10,2013-12-06 19:27:00,
2013-12-06 14:42:00,32.3,29.0,29.94,NNE,19,5.0,7.0,87,0.00,,,0.10,weatherlink.com 1.10,2013-12-06 19:42:00,
2013-12-06 15:12:00,31.6,29.0,29.96,NE,55,3.0,11.0,90,0.00,,,0.10,weatherlink.com 1.10,2013-12-06 20:12:00,
2013-12-06 15:27:00,31.4,29.0,29.96,SSE,149,2.0,6.0,90,0.00,,,0.10,weatherlink.com 1.10,2013-12-06 20:27:00,
2013-12-06 15:42:00,31.2,29.0,29.96,NE,46,4.0,7.0,91,0.00,,,0.10,weatherlink.com 1.10,2013-12-06 20:42:00,
2013-12-06 15:57:00,31.1,29.0,29.96,NE,39,3.0,4.0,91,0.00,,,0.10,weatherlink.com 1.10,2013-12-06 20:57:00,
2013-12-06 16:12:00,30.7,29.0,29.95,North,355,1.0,7.0,92,0.00,,,0.10,weatherlink.com 1.10,2013-12-06 21:12:00,
2013-12-06 16:27:00,30.3,29.0,29.95,NE,51,3.0,10.0,93,0.00,,,0.10,weatherlink.com 1.10,2013-12-06 21:27:00,
2013-12-06 16:42:00,30.2,29.0,29.97,NE,49,3.0,12.0,93,0.00,,,0.00,weatherlink.com 1.10,2013-12-06 21:42:00,
2013-12-06 16:57:00,30.2,29.0,29.97,East,101,2.0,10.0,93,0.00,,,0.00,weatherlink.com 1.10,2013-12-06 21:57:00,
2013-12-06 17:12:00,29.9,28.0,30.00,NE,34,5.0,10.0,94,0.00,,,0.00,weatherlink.com 1.10,2013-12-06 22:12:00,
2013-12-06 17:27:00,29.8,29.0,29.99,NE,38,6.0,11.0,95,0.00,,,0.00,weatherlink.com 1.10,2013-12-06 22:27:00,
2013-12-06 17:42:00,29.6,28.0,29.99,NE,55,6.0,11.0,95,0.00,,,0.00,weatherlink.com 1.10,2013-12-06 22:42:00,
2013-12-06 17:57:00,29.4,28.0,30.00,ENE,59,8.0,11.0,96,0.00,,,0.00,weatherlink.com 1.10,2013-12-06 22:57:00,
2013-12-06 18:12:00,29.4,28.0,30.01,NE,54,3.0,9.0,96,0.00,,,0.00,weatherlink.com 1.10,2013-12-06 23:12:00,
2013-12-06 18:27:00,29.3,28.0,30.01,ESE,119,2.0,9.0,96,0.00,,,0.00,weatherlink.com 1.10,2013-12-06 23:27:00,
2013-12-06 18:42:00,29.2,28.0,30.01,NE,47,4.0,8.0,96,0.00,,,0.00,weatherlink.com 1.10,2013-12-06 23:42:00,
2013-12-06 18:57:00,29.0,28.0,30.01,ENE,59,3.0,9.0,96,0.01,,,0.01,weatherlink.com 1.10,2013-12-06 23:57:00,
2013-12-06 19:12:00,28.7,28.0,30.01,NE,51,0.0,7.0,96,0.01,,,0.01,weatherlink.com 1.10,2013-12-07 00:12:00,
2013-12-06 19:27:00,28.5,28.0,29.99,NE,42,5.0,8.0,96,0.01,,,0.01,weatherlink.com 1.10,2013-12-07 00:27:00,
2013-12-06 19:42:00,28.4,27.0,29.99,NE,44,3.0,8.0,96,0.01,,,0.01,weatherlink.com 1.10,2013-12-07 00:42:00,
2013-12-06 19:57:00,28.3,27.0,30.04,NNE,12,4.0,11.0,96,0.00,,,0.01,weatherlink.com 1.10,2013-12-07 00:57:00,
2013-12-06 20:12:00,27.8,27.0,30.06,East,80,5.0,8.0,96,0.00,,,0.01,weatherlink.com 1.10,2013-12-07 01:12:00,
2013-12-06 20:28:00,27.3,26.0,30.07,NE,40,9.0,11.0,96,0.00,,,0.01,weatherlink.com 1.10,2013-12-07 01:28:00,
2013-12-06 20:43:00,26.0,25.0,30.04,North,11,6.0,14.0,95,0.00,,,0.01,weatherlink.com 1.10,2013-12-07 01:43:00,
2013-12-06 20:58:00,25.7,25.0,30.02,NNE,32,2.0,8.0,96,0.00,,,0.01,weatherlink.com 1.10,2013-12-07 01:58:00,
2013-12-06 21:13:00,26.0,25.0,30.01,ENE,77,2.0,10.0,97,0.00,,,0.01,weatherlink.com 1.10,2013-12-07 02:13:00,
2013-12-06 21:28:00,26.2,26.0,30.02,NNE,27,2.0,9.0,97,0.00,,,0.01,weatherlink.com 1.10,2013-12-07 02:28:00,
2013-12-06 21:43:00,26.5,26.0,30.04,NNE,13,3.0,7.0,97,0.00,,,0.01,weatherlink.com 1.10,2013-12-07 02:43:00,
2013-12-06 21:58:00,26.7,26.0,30.06,NNE,24,4.0,9.0,97,0.00,,,0.01,weatherlink.com 1.10,2013-12-07 02:58:00,
2013-12-06 22:13:00,26.7,26.0,30.05,NNE,28,1.0,9.0,97,0.00,,,0.01,weatherlink.com 1.10,2013-12-07 03:13:00,
2013-12-06 22:28:00,26.5,26.0,30.05,ENE,67,3.0,7.0,97,0.00,,,0.01,weatherlink.com 1.10,2013-12-07 03:28:00,
2013-12-06 22:43:00,25.7,25.0,30.05,ESE,109,3.0,10.0,96,0.00,,,0.01,weatherlink.com 1.10,2013-12-07 03:43:00,
2013-12-06 22:58:00,25.3,24.0,30.06,East,81,5.0,8.0,96,0.00,,,0.01,weatherlink.com 1.10,2013-12-07 03:58:00,
2013-12-06 23:13:00,25.0,24.0,30.07,SSW,200,2.0,7.0,96,0.00,,,0.01,weatherlink.com 1.10,2013-12-07 04:13:00,
2013-12-06 23:28:00,24.9,24.0,30.07,NNE,30,1.0,9.0,96,0.00,,,0.01,weatherlink.com 1.10,2013-12-07 04:28:00,
2013-12-06 23:43:00,24.9,24.0,30.06,NE,40,3.0,12.0,97,0.00,,,0.01,weatherlink.com 1.10,2013-12-07 04:43:00,
2013-12-06 23:58:00,25.0,24.0,30.06,ENE,57,3.0,7.0,97,0.00,,,0.01,weatherlink.com 1.10,2013-12-07 04:58:00,